메인 페이지
METAR-TAF:

METAR-TAF

공항 :

빌례나 공항

Vilhena, 혼도니아, 브라질

위도: 12-42S, 경도: 060-06W, 고도: 612m

현재 날씨관측

예보는 1 시간 15분 전, 22:00시(UTC)에 발표되었습니다.
북북동3kt
온도 27°C
습도 39%
기압 1017 hPa
시정 10km 이상
1500m 미만 상공 구름 및 적란운 없음

METAR: SBVH 202200Z 03003KT CAVOK 27/12 Q1017

시각: 19:15 (23:15 UTC)

예보

예보는 8 시간 22분 전, 14:53시(UTC)에 발표되었습니다.
예보 대상 시간: 20일 18시부터 21일 06시까지 (UTC)
10kt
시정 10km 이상
1500m 미만 상공 구름 및 적란운 없음

TAF: SBVH 201453Z 2018/2106 09010KT CAVOK TX30/2018Z TN18/2106Z RMK PGU

4,000개 이상의 공항 관측 자료 및 예보 (METAR 및 TAF 보고).

지도상에서 검색 가능한 기상관측소가 노란 점과 빨간 점으로 표시되어 있습니다.

기상관측소 명을 보려면 표시 위로 마우스를 이동하세요.

날씨 관측과 예보를 보려면 클릭하세요.

지도 변경 : 확대하려면 엑스 표시가 있는 녹색 버튼, 축소하려면 빼기 표시가 있는 녹색 버튼, 다음 페이지의 지도를 보려면 녹색 화살표를 클릭하세요.


METAR-TAF: